Holt, Florida
Current Conditions -  °F | °C
As of 10:53 PM on Saturday 20 Dec 2014 (Local Time) from KCEW Reporting Station
Overcast Overcast  
Wind Chill: 52°   Ceiling: 1000
Heat Index: 52°   Visibility: 10mi
Dew Point: 49°   Wind: 6mph
Humidity: 89%   Direction: 20°NNE
Pressure: 30.15"   Gusts: NA
Location:  30.72°N, 86.75°W
Report Text: KCEW 210453Z AUTO 02005KT 10SM OVC010 11/09 A3015 RMK AO2 SLP208 T01110094
Loading
Personal Weather Stations






























Interactive Weather Map New forecast layout! Learn more

10-Day Weather Forecast

Advertisements
Track Severe Weather on mobile